sensor_id;sensor_type;location;lat;lon;timestamp;temperature;humidity
30379;DHT22;17168;49.164;9.060;2023-08-12T00:00:11;25.70;68.80
30379;DHT22;17168;49.164;9.060;2023-08-12T00:02:44;25.30;69.90
30379;DHT22;17168;49.164;9.060;2023-08-12T00:05:16;24.90;70.80
30379;DHT22;17168;49.164;9.060;2023-08-12T00:07:49;24.60;71.80
30379;DHT22;17168;49.164;9.060;2023-08-12T00:10:21;24.20;72.80
30379;DHT22;17168;49.164;9.060;2023-08-12T00:12:56;24.00;73.50
30379;DHT22;17168;49.164;9.060;2023-08-12T00:15:28;23.70;74.40
30379;DHT22;17168;49.164;9.060;2023-08-12T00:18:00;23.50;75.10
30379;DHT22;17168;49.164;9.060;2023-08-12T00:20:33;23.30;75.70
30379;DHT22;17168;49.164;9.060;2023-08-12T00:23:05;23.10;76.50
30379;DHT22;17168;49.164;9.060;2023-08-12T00:25:37;22.90;77.30
30379;DHT22;17168;49.164;9.060;2023-08-12T00:28:12;22.70;78.10
30379;DHT22;17168;49.164;9.060;2023-08-12T00:30:47;22.60;78.90
30379;DHT22;17168;49.164;9.060;2023-08-12T00:33:19;22.40;79.70
30379;DHT22;17168;49.164;9.060;2023-08-12T00:35:51;22.30;80.40
30379;DHT22;17168;49.164;9.060;2023-08-12T00:38:23;22.20;81.00
30379;DHT22;17168;49.164;9.060;2023-08-12T00:40:56;22.10;81.70
30379;DHT22;17168;49.164;9.060;2023-08-12T00:43:32;22.10;82.50
30379;DHT22;17168;49.164;9.060;2023-08-12T00:46:04;22.00;83.10
30379;DHT22;17168;49.164;9.060;2023-08-12T00:48:37;22.00;83.90
30379;DHT22;17168;49.164;9.060;2023-08-12T00:51:09;21.90;84.40
30379;DHT22;17168;49.164;9.060;2023-08-12T00:53:41;21.80;85.10
30379;DHT22;17168;49.164;9.060;2023-08-12T00:56:14;21.70;86.00
30379;DHT22;17168;49.164;9.060;2023-08-12T00:58:49;21.70;86.80
30379;DHT22;17168;49.164;9.060;2023-08-12T01:01:21;21.60;87.50
30379;DHT22;17168;49.164;9.060;2023-08-12T01:03:53;21.60;88.50
30379;DHT22;17168;49.164;9.060;2023-08-12T01:06:26;21.50;89.20
30379;DHT22;17168;49.164;9.060;2023-08-12T01:08:58;21.40;90.10
30379;DHT22;17168;49.164;9.060;2023-08-12T01:11:36;21.40;90.50
30379;DHT22;17168;49.164;9.060;2023-08-12T01:14:16;21.30;90.90
30379;DHT22;17168;49.164;9.060;2023-08-12T01:16:53;21.30;91.40
30379;DHT22;17168;49.164;9.060;2023-08-12T01:19:32;21.30;92.00
30379;DHT22;17168;49.164;9.060;2023-08-12T01:22:09;21.20;92.60
30379;DHT22;17168;49.164;9.060;2023-08-12T01:24:44;21.10;93.20
30379;DHT22;17168;49.164;9.060;2023-08-12T01:27:17;21.10;94.00
30379;DHT22;17168;49.164;9.060;2023-08-12T01:29:50;21.00;94.90
30379;DHT22;17168;49.164;9.060;2023-08-12T01:32:25;21.00;95.70
30379;DHT22;17168;49.164;9.060;2023-08-12T01:35:05;20.90;96.40
30379;DHT22;17168;49.164;9.060;2023-08-12T01:37:39;20.90;96.90
30379;DHT22;17168;49.164;9.060;2023-08-12T01:40:15;20.90;97.60
30379;DHT22;17168;49.164;9.060;2023-08-12T01:42:48;20.80;98.30
30379;DHT22;17168;49.164;9.060;2023-08-12T01:45:22;20.80;99.10
30379;DHT22;17168;49.164;9.060;2023-08-12T01:47:55;20.80;99.80
30379;DHT22;17168;49.164;9.060;2023-08-12T01:50:27;20.80;99.90
30379;DHT22;17168;49.164;9.060;2023-08-12T01:52:59;20.70;99.90
30379;DHT22;17168;49.164;9.060;2023-08-12T01:55:34;20.70;99.90
30379;DHT22;17168;49.164;9.060;2023-08-12T01:58:06;20.70;99.90
30379;DHT22;17168;49.164;9.060;2023-08-12T02:00:38;20.70;99.90
30379;DHT22;17168;49.164;9.060;2023-08-12T02:03:11;20.70;99.90
30379;DHT22;17168;49.164;9.060;2023-08-12T02:05:43;20.70;99.90
30379;DHT22;17168;49.164;9.060;2023-08-12T02:08:15;20.60;99.90
30379;DHT22;17168;49.164;9.060;2023-08-12T02:10:50;20.60;99.90
30379;DHT22;17168;49.164;9.060;2023-08-12T02:13:22;20.60;99.90
30379;DHT22;17168;49.164;9.060;2023-08-12T02:15:54;20.60;99.90
30379;DHT22;17168;49.164;9.060;2023-08-12T02:18:28;20.60;99.90
30379;DHT22;17168;49.164;9.060;2023-08-12T02:21:00;20.60;99.90
30379;DHT22;17168;49.164;9.060;2023-08-12T02:23:32;20.60;99.90
30379;DHT22;17168;49.164;9.060;2023-08-12T02:26:07;20.70;99.90
30379;DHT22;17168;49.164;9.060;2023-08-12T02:28:39;20.70;99.90
30379;DHT22;17168;49.164;9.060;2023-08-12T02:31:11;20.70;99.90
30379;DHT22;17168;49.164;9.060;2023-08-12T02:33:43;20.70;99.90
30379;DHT22;17168;49.164;9.060;2023-08-12T02:36:15;20.70;99.90
30379;DHT22;17168;49.164;9.060;2023-08-12T02:38:48;20.80;99.90
30379;DHT22;17168;49.164;9.060;2023-08-12T02:41:22;20.80;99.90
30379;DHT22;17168;49.164;9.060;2023-08-12T02:43:55;20.80;99.90
30379;DHT22;17168;49.164;9.060;2023-08-12T02:46:27;20.80;99.90
30379;DHT22;17168;49.164;9.060;2023-08-12T02:48:59;20.70;99.90
30379;DHT22;17168;49.164;9.060;2023-08-12T02:51:31;20.80;99.90
30379;DHT22;17168;49.164;9.060;2023-08-12T02:54:03;20.70;99.90
30379;DHT22;17168;49.164;9.060;2023-08-12T02:56:38;20.80;99.90
30379;DHT22;17168;49.164;9.060;2023-08-12T02:59:11;20.80;99.90
30379;DHT22;17168;49.164;9.060;2023-08-12T03:01:43;20.80;99.90
30379;DHT22;17168;49.164;9.060;2023-08-12T12:46:07;26.40;98.20
30379;DHT22;17168;49.164;9.060;2023-08-12T12:48:40;26.50;98.00
